sensor_id;sensor_type;location;lat;lon;timestamp;temperature;humidity
47600;DHT22;33323;52.124;6.018;2023-03-23T00:02:27;11.00;99.90
47600;DHT22;33323;52.124;6.018;2023-03-23T00:04:54;11.10;99.90
47600;DHT22;33323;52.124;6.018;2023-03-23T00:07:21;11.00;99.90
47600;DHT22;33323;52.124;6.018;2023-03-23T00:09:49;11.00;99.90
47600;DHT22;33323;52.124;6.018;2023-03-23T00:12:24;11.00;99.90
47600;DHT22;33323;52.124;6.018;2023-03-23T00:15:04;11.00;99.90
47600;DHT22;33323;52.124;6.018;2023-03-23T00:17:32;11.00;99.90
47600;DHT22;33323;52.124;6.018;2023-03-23T00:19:59;11.00;99.90
47600;DHT22;33323;52.124;6.018;2023-03-23T00:22:28;11.00;99.90
47600;DHT22;33323;52.124;6.018;2023-03-23T00:24:54;11.00;99.90
47600;DHT22;33323;52.124;6.018;2023-03-23T00:27:21;11.00;99.90
47600;DHT22;33323;52.124;6.018;2023-03-23T00:29:51;11.00;99.90
47600;DHT22;33323;52.124;6.018;2023-03-23T00:32:22;11.00;99.90
47600;DHT22;33323;52.124;6.018;2023-03-23T00:34:56;11.00;99.90
47600;DHT22;33323;52.124;6.018;2023-03-23T00:37:26;11.00;99.90
47600;DHT22;33323;52.124;6.018;2023-03-23T00:39:52;11.00;99.90
47600;DHT22;33323;52.124;6.018;2023-03-23T00:42:23;11.00;99.90
47600;DHT22;33323;52.124;6.018;2023-03-23T00:44:50;10.90;99.90
47600;DHT22;33323;52.124;6.018;2023-03-23T00:47:16;11.00;99.90
47600;DHT22;33323;52.124;6.018;2023-03-23T00:49:43;11.00;99.90
47600;DHT22;33323;52.124;6.018;2023-03-23T00:52:09;11.00;99.90
47600;DHT22;33323;52.124;6.018;2023-03-23T00:54:36;11.00;99.90
47600;DHT22;33323;52.124;6.018;2023-03-23T00:57:04;11.00;99.90
47600;DHT22;33323;52.124;6.018;2023-03-23T00:59:31;11.00;99.90
47600;DHT22;33323;52.124;6.018;2023-03-23T01:01:57;10.90;99.90
47600;DHT22;33323;52.124;6.018;2023-03-23T01:04:23;10.90;99.90
47600;DHT22;33323;52.124;6.018;2023-03-23T01:06:50;10.90;99.90
47600;DHT22;33323;52.124;6.018;2023-03-23T01:09:18;10.90;99.90
47600;DHT22;33323;52.124;6.018;2023-03-23T01:11:49;10.90;99.90
47600;DHT22;33323;52.124;6.018;2023-03-23T01:14:17;10.90;99.90
47600;DHT22;33323;52.124;6.018;2023-03-23T01:16:44;10.80;99.90
47600;DHT22;33323;52.124;6.018;2023-03-23T01:19:11;10.80;99.90
47600;DHT22;33323;52.124;6.018;2023-03-23T01:21:37;10.80;99.90
47600;DHT22;33323;52.124;6.018;2023-03-23T01:24:03;10.80;99.90
47600;DHT22;33323;52.124;6.018;2023-03-23T01:26:29;10.80;99.90
47600;DHT22;33323;52.124;6.018;2023-03-23T01:28:56;10.80;99.90
47600;DHT22;33323;52.124;6.018;2023-03-23T01:31:24;10.80;99.90
47600;DHT22;33323;52.124;6.018;2023-03-23T01:33:51;10.80;99.90
47600;DHT22;33323;52.124;6.018;2023-03-23T01:36:22;10.80;99.90
47600;DHT22;33323;52.124;6.018;2023-03-23T01:38:50;10.80;99.90
47600;DHT22;33323;52.124;6.018;2023-03-23T01:41:17;10.80;99.90
47600;DHT22;33323;52.124;6.018;2023-03-23T01:43:57;10.80;99.90
47600;DHT22;33323;52.124;6.018;2023-03-23T01:46:37;10.80;99.90
47600;DHT22;33323;52.124;6.018;2023-03-23T01:49:09;10.80;99.90
47600;DHT22;33323;52.124;6.018;2023-03-23T01:51:48;10.80;99.90
47600;DHT22;33323;52.124;6.018;2023-03-23T01:54:17;10.80;99.90
47600;DHT22;33323;52.124;6.018;2023-03-23T01:56:50;10.90;99.90
47600;DHT22;33323;52.124;6.018;2023-03-23T01:59:20;10.90;99.90
47600;DHT22;33323;52.124;6.018;2023-03-23T02:01:55;10.90;99.90
47600;DHT22;33323;52.124;6.018;2023-03-23T02:04:24;10.90;99.90
47600;DHT22;33323;52.124;6.018;2023-03-23T02:06:51;10.90;99.90
47600;DHT22;33323;52.124;6.018;2023-03-23T02:09:22;10.90;99.90
47600;DHT22;33323;52.124;6.018;2023-03-23T02:11:49;11.00;99.90
47600;DHT22;33323;52.124;6.018;2023-03-23T02:14:16;11.00;99.90
47600;DHT22;33323;52.124;6.018;2023-03-23T02:16:55;11.00;99.90
47600;DHT22;33323;52.124;6.018;2023-03-23T02:19:59;11.00;99.90
47600;DHT22;33323;52.124;6.018;2023-03-23T02:26:37;10.90;99.90
47600;DHT22;33323;52.124;6.018;2023-03-23T02:35:36;11.00;99.90
47600;DHT22;33323;52.124;6.018;2023-03-23T02:38:15;11.00;99.90
47600;DHT22;33323;52.124;6.018;2023-03-23T02:40:48;11.00;99.90
47600;DHT22;33323;52.124;6.018;2023-03-23T02:43:22;11.00;99.90
47600;DHT22;33323;52.124;6.018;2023-03-23T02:45:52;11.00;99.90
47600;DHT22;33323;52.124;6.018;2023-03-23T02:48:20;11.00;99.90
47600;DHT22;33323;52.124;6.018;2023-03-23T02:50:51;11.10;99.90
47600;DHT22;33323;52.124;6.018;2023-03-23T02:53:23;11.00;99.90
47600;DHT22;33323;52.124;6.018;2023-03-23T02:55:53;11.00;99.90
47600;DHT22;33323;52.124;6.018;2023-03-23T02:58:23;11.00;99.90
47600;DHT22;33323;52.124;6.018;2023-03-23T03:00:50;11.10;99.90
47600;DHT22;33323;52.124;6.018;2023-03-23T03:03:26;11.10;99.90
47600;DHT22;33323;52.124;6.018;2023-03-23T03:08:51;11.10;99.90
47600;DHT22;33323;52.124;6.018;2023-03-23T03:11:21;11.10;99.90
47600;DHT22;33323;52.124;6.018;2023-03-23T03:16:38;11.20;99.90
47600;DHT22;33323;52.124;6.018;2023-03-23T03:19:17;11.20;99.90
47600;DHT22;33323;52.124;6.018;2023-03-23T03:21:48;11.20;99.90
47600;DHT22;33323;52.124;6.018;2023-03-23T03:24:22;11.20;99.90
47600;DHT22;33323;52.124;6.018;2023-03-23T03:26:52;11.30;99.90
47600;DHT22;33323;52.124;6.018;2023-03-23T03:29:36;11.30;99.90
47600;DHT22;33323;52.124;6.018;2023-03-23T03:32:08;11.30;99.90
47600;DHT22;33323;52.124;6.018;2023-03-23T03:34:38;11.30;99.90
47600;DHT22;33323;52.124;6.018;2023-03-23T03:37:05;11.30;99.90
47600;DHT22;33323;52.124;6.018;2023-03-23T03:39:36;11.30;99.90
47600;DHT22;33323;52.124;6.018;2023-03-23T03:42:04;11.30;99.90
47600;DHT22;33323;52.124;6.018;2023-03-23T03:44:32;11.30;99.90
47600;DHT22;33323;52.124;6.018;2023-03-23T03:46:59;11.30;99.90
47600;DHT22;33323;52.124;6.018;2023-03-23T03:49:25;11.30;99.90
47600;DHT22;33323;52.124;6.018;2023-03-23T03:51:53;11.30;99.90
47600;DHT22;33323;52.124;6.018;2023-03-23T03:54:24;11.30;99.90
47600;DHT22;33323;52.124;6.018;2023-03-23T03:56:51;11.30;99.90
47600;DHT22;33323;52.124;6.018;2023-03-23T03:59:43;11.30;99.90
47600;DHT22;33323;52.124;6.018;2023-03-23T04:02:31;11.30;99.90
47600;DHT22;33323;52.124;6.018;2023-03-23T04:04:57;11.20;99.90
47600;DHT22;33323;52.124;6.018;2023-03-23T04:07:23;11.30;99.90
47600;DHT22;33323;52.124;6.018;2023-03-23T04:09:52;11.30;99.90
47600;DHT22;33323;52.124;6.018;2023-03-23T04:12:20;11.30;99.90
47600;DHT22;33323;52.124;6.018;2023-03-23T04:14:54;11.40;99.90
47600;DHT22;33323;52.124;6.018;2023-03-23T04:17:22;11.40;99.90
47600;DHT22;33323;52.124;6.018;2023-03-23T04:19:52;11.30;99.90
47600;DHT22;33323;52.124;6.018;2023-03-23T04:22:23;11.30;99.90
47600;DHT22;33323;52.124;6.018;2023-03-23T04:24:59;11.30;99.90
47600;DHT22;33323;52.124;6.018;2023-03-23T04:27:28;11.30;99.90
47600;DHT22;33323;52.124;6.018;2023-03-23T04:29:57;11.30;99.90
47600;DHT22;33323;52.124;6.018;2023-03-23T04:32:42;11.20;99.90
47600;DHT22;33323;52.124;6.018;2023-03-23T04:35:12;11.30;99.90
47600;DHT22;33323;52.124;6.018;2023-03-23T04:38:04;11.20;99.90
47600;DHT22;33323;52.124;6.018;2023-03-23T04:40:30;11.30;99.90
47600;DHT22;33323;52.124;6.018;2023-03-23T04:43:06;11.30;99.90
47600;DHT22;33323;52.124;6.018;2023-03-23T04:45:54;11.30;99.90
47600;DHT22;33323;52.124;6.018;2023-03-23T04:48:28;11.30;99.90
47600;DHT22;33323;52.124;6.018;2023-03-23T04:51:04;11.40;99.90
47600;DHT22;33323;52.124;6.018;2023-03-23T04:53:32;11.40;99.90
47600;DHT22;33323;52.124;6.018;2023-03-23T04:55:59;11.40;99.90
47600;DHT22;33323;52.124;6.018;2023-03-23T04:58:31;11.40;99.90
47600;DHT22;33323;52.124;6.018;2023-03-23T05:01:25;11.50;99.90
47600;DHT22;33323;52.124;6.018;2023-03-23T05:04:05;11.50;99.90
47600;DHT22;33323;52.124;6.018;2023-03-23T05:06:32;11.50;99.90
47600;DHT22;33323;52.124;6.018;2023-03-23T05:09:03;11.50;99.90
47600;DHT22;33323;52.124;6.018;2023-03-23T05:11:30;11.50;99.90
47600;DHT22;33323;52.124;6.018;2023-03-23T05:13:57;11.50;99.90
47600;DHT22;33323;52.124;6.018;2023-03-23T05:16:23;11.50;99.90
47600;DHT22;33323;52.124;6.018;2023-03-23T05:18:49;11.50;99.90
47600;DHT22;33323;52.124;6.018;2023-03-23T05:21:16;11.60;99.90
47600;DHT22;33323;52.124;6.018;2023-03-23T05:23:48;11.60;99.90
47600;DHT22;33323;52.124;6.018;2023-03-23T05:26:22;11.50;99.90
47600;DHT22;33323;52.124;6.018;2023-03-23T05:28:53;11.50;99.90
47600;DHT22;33323;52.124;6.018;2023-03-23T05:31:34;11.50;99.90
47600;DHT22;33323;52.124;6.018;2023-03-23T05:34:00;11.60;99.90
47600;DHT22;33323;52.124;6.018;2023-03-23T05:36:35;11.50;99.90
47600;DHT22;33323;52.124;6.018;2023-03-23T05:39:22;11.50;99.90
47600;DHT22;33323;52.124;6.018;2023-03-23T05:42:00;11.40;99.90
47600;DHT22;33323;52.124;6.018;2023-03-23T05:44:38;11.60;99.90
47600;DHT22;33323;52.124;6.018;2023-03-23T05:47:04;11.50;99.90
47600;DHT22;33323;52.124;6.018;2023-03-23T05:49:30;11.50;99.90
47600;DHT22;33323;52.124;6.018;2023-03-23T05:51:57;11.50;99.90
47600;DHT22;33323;52.124;6.018;2023-03-23T05:54:26;11.50;99.90
47600;DHT22;33323;52.124;6.018;2023-03-23T05:56:53;11.50;99.90
47600;DHT22;33323;52.124;6.018;2023-03-23T05:59:35;11.40;99.90
47600;DHT22;33323;52.124;6.018;2023-03-23T06:02:03;11.50;99.90
47600;DHT22;33323;52.124;6.018;2023-03-23T06:04:30;11.50;99.90
47600;DHT22;33323;52.124;6.018;2023-03-23T06:07:17;11.50;99.90
47600;DHT22;33323;52.124;6.018;2023-03-23T06:09:52;11.50;99.90
47600;DHT22;33323;52.124;6.018;2023-03-23T06:12:21;11.50;99.90
47600;DHT22;33323;52.124;6.018;2023-03-23T06:14:57;11.50;99.90
47600;DHT22;33323;52.124;6.018;2023-03-23T06:17:38;11.60;99.90
47600;DHT22;33323;52.124;6.018;2023-03-23T06:20:05;11.60;99.90
47600;DHT22;33323;52.124;6.018;2023-03-23T06:22:37;11.60;99.90
47600;DHT22;33323;52.124;6.018;2023-03-23T06:25:27;11.60;99.90
47600;DHT22;33323;52.124;6.018;2023-03-23T06:27:54;11.60;99.90
47600;DHT22;33323;52.124;6.018;2023-03-23T06:30:20;11.60;99.90
47600;DHT22;33323;52.124;6.018;2023-03-23T06:32:47;11.70;99.90
47600;DHT22;33323;52.124;6.018;2023-03-23T06:35:16;11.70;99.90
47600;DHT22;33323;52.124;6.018;2023-03-23T06:38:12;11.70;99.90
47600;DHT22;33323;52.124;6.018;2023-03-23T06:40:53;11.70;99.90
47600;DHT22;33323;52.124;6.018;2023-03-23T06:43:22;11.70;99.90
47600;DHT22;33323;52.124;6.018;2023-03-23T06:45:59;11.70;99.90
47600;DHT22;33323;52.124;6.018;2023-03-23T06:48:41;11.80;99.90
47600;DHT22;33323;52.124;6.018;2023-03-23T06:51:10;11.80;99.90
47600;DHT22;33323;52.124;6.018;2023-03-23T06:53:38;11.80;99.90
47600;DHT22;33323;52.124;6.018;2023-03-23T06:56:08;11.80;99.90
47600;DHT22;33323;52.124;6.018;2023-03-23T06:58:35;11.80;99.90
47600;DHT22;33323;52.124;6.018;2023-03-23T07:01:03;11.90;99.90
47600;DHT22;33323;52.124;6.018;2023-03-23T07:03:34;11.80;99.90
47600;DHT22;33323;52.124;6.018;2023-03-23T07:06:00;11.90;99.90
47600;DHT22;33323;52.124;6.018;2023-03-23T07:08:31;11.80;99.90
47600;DHT22;33323;52.124;6.018;2023-03-23T07:10:57;11.80;99.90
47600;DHT22;33323;52.124;6.018;2023-03-23T07:13:27;11.80;99.90
47600;DHT22;33323;52.124;6.018;2023-03-23T07:15:57;11.80;99.90
47600;DHT22;33323;52.124;6.018;2023-03-23T07:18:23;11.80;99.90
47600;DHT22;33323;52.124;6.018;2023-03-23T07:20:53;11.80;99.90
47600;DHT22;33323;52.124;6.018;2023-03-23T07:23:22;11.80;99.90
47600;DHT22;33323;52.124;6.018;2023-03-23T07:25:58;11.80;99.90
47600;DHT22;33323;52.124;6.018;2023-03-23T07:28:31;11.80;99.90
47600;DHT22;33323;52.124;6.018;2023-03-23T07:31:04;11.80;99.90
47600;DHT22;33323;52.124;6.018;2023-03-23T07:33:30;11.80;99.90
47600;DHT22;33323;52.124;6.018;2023-03-23T07:35:59;11.90;99.90
47600;DHT22;33323;52.124;6.018;2023-03-23T07:38:27;12.00;99.90
47600;DHT22;33323;52.124;6.018;2023-03-23T07:40:53;12.00;99.90
47600;DHT22;33323;52.124;6.018;2023-03-23T07:43:20;12.00;99.90
47600;DHT22;33323;52.124;6.018;2023-03-23T07:46:06;12.00;99.90
47600;DHT22;33323;52.124;6.018;2023-03-23T07:48:46;12.00;99.90
47600;DHT22;33323;52.124;6.018;2023-03-23T07:51:13;11.90;99.90
47600;DHT22;33323;52.124;6.018;2023-03-23T07:53:39;11.90;99.90
47600;DHT22;33323;52.124;6.018;2023-03-23T07:56:27;11.90;99.90
47600;DHT22;33323;52.124;6.018;2023-03-23T07:59:07;11.90;99.90
47600;DHT22;33323;52.124;6.018;2023-03-23T08:01:36;11.90;99.90
47600;DHT22;33323;52.124;6.018;2023-03-23T08:04:26;11.90;99.90
47600;DHT22;33323;52.124;6.018;2023-03-23T08:07:21;11.90;99.90
47600;DHT22;33323;52.124;6.018;2023-03-23T08:10:09;11.90;99.90
47600;DHT22;33323;52.124;6.018;2023-03-23T08:13:16;11.90;99.90
47600;DHT22;33323;52.124;6.018;2023-03-23T08:16:01;11.90;99.90
47600;DHT22;33323;52.124;6.018;2023-03-23T08:18:47;11.90;99.90
47600;DHT22;33323;52.124;6.018;2023-03-23T08:21:27;11.90;99.90
47600;DHT22;33323;52.124;6.018;2023-03-23T08:24:17;11.90;99.90
47600;DHT22;33323;52.124;6.018;2023-03-23T08:27:07;11.90;99.90
47600;DHT22;33323;52.124;6.018;2023-03-23T08:29:59;11.80;99.90
47600;DHT22;33323;52.124;6.018;2023-03-23T08:32:51;11.70;99.90
47600;DHT22;33323;52.124;6.018;2023-03-23T08:35:33;11.60;99.90
47600;DHT22;33323;52.124;6.018;2023-03-23T08:38:21;11.60;99.90
47600;DHT22;33323;52.124;6.018;2023-03-23T08:41:05;11.50;99.90
47600;DHT22;33323;52.124;6.018;2023-03-23T08:44:02;11.50;99.90
47600;DHT22;33323;52.124;6.018;2023-03-23T08:46:34;11.50;99.90
47600;DHT22;33323;52.124;6.018;2023-03-23T08:49:09;11.60;99.90
47600;DHT22;33323;52.124;6.018;2023-03-23T08:52:07;11.60;99.90
47600;DHT22;33323;52.124;6.018;2023-03-23T08:54:51;11.70;99.90
47600;DHT22;33323;52.124;6.018;2023-03-23T08:57:28;11.80;99.90
47600;DHT22;33323;52.124;6.018;2023-03-23T09:00:19;11.90;99.90
47600;DHT22;33323;52.124;6.018;2023-03-23T09:03:12;11.90;99.90
47600;DHT22;33323;52.124;6.018;2023-03-23T09:05:59;11.90;99.90
47600;DHT22;33323;52.124;6.018;2023-03-23T09:08:35;11.80;99.90
47600;DHT22;33323;52.124;6.018;2023-03-23T09:11:06;11.80;99.90
47600;DHT22;33323;52.124;6.018;2023-03-23T09:13:35;11.90;99.90
47600;DHT22;33323;52.124;6.018;2023-03-23T09:16:03;12.00;99.90
47600;DHT22;33323;52.124;6.018;2023-03-23T09:18:30;12.00;99.90
47600;DHT22;33323;52.124;6.018;2023-03-23T09:20:59;12.00;99.90
47600;DHT22;33323;52.124;6.018;2023-03-23T09:23:25;12.00;99.90
47600;DHT22;33323;52.124;6.018;2023-03-23T09:25:52;12.10;99.90
47600;DHT22;33323;52.124;6.018;2023-03-23T09:28:19;12.10;99.90
47600;DHT22;33323;52.124;6.018;2023-03-23T09:30:46;12.20;99.90
47600;DHT22;33323;52.124;6.018;2023-03-23T09:33:13;12.30;99.90
47600;DHT22;33323;52.124;6.018;2023-03-23T09:35:40;12.40;99.90
47600;DHT22;33323;52.124;6.018;2023-03-23T09:38:09;12.70;99.90
47600;DHT22;33323;52.124;6.018;2023-03-23T09:40:48;12.80;99.90
47600;DHT22;33323;52.124;6.018;2023-03-23T09:46:41;13.30;99.90
47600;DHT22;33323;52.124;6.018;2023-03-23T09:49:26;13.10;99.90
47600;DHT22;33323;52.124;6.018;2023-03-23T09:52:03;13.10;99.90
47600;DHT22;33323;52.124;6.018;2023-03-23T09:54:37;13.40;99.90
47600;DHT22;33323;52.124;6.018;2023-03-23T09:57:14;13.50;99.90
47600;DHT22;33323;52.124;6.018;2023-03-23T09:59:52;13.20;99.90
47600;DHT22;33323;52.124;6.018;2023-03-23T10:02:38;13.50;99.90
47600;DHT22;33323;52.124;6.018;2023-03-23T10:05:36;13.40;99.90
47600;DHT22;33323;52.124;6.018;2023-03-23T10:08:13;13.30;99.90
47600;DHT22;33323;52.124;6.018;2023-03-23T10:15:51;14.00;99.90
47600;DHT22;33323;52.124;6.018;2023-03-23T10:18:36;14.10;99.90
47600;DHT22;33323;52.124;6.018;2023-03-23T10:21:02;14.10;99.90
47600;DHT22;33323;52.124;6.018;2023-03-23T10:29:21;13.10;99.90
47600;DHT22;33323;52.124;6.018;2023-03-23T10:31:58;13.00;99.90
47600;DHT22;33323;52.124;6.018;2023-03-23T10:34:32;13.30;99.90
47600;DHT22;33323;52.124;6.018;2023-03-23T10:39:55;14.20;99.90
47600;DHT22;33323;52.124;6.018;2023-03-23T10:42:31;14.40;99.90
47600;DHT22;33323;52.124;6.018;2023-03-23T10:45:00;14.70;99.90
47600;DHT22;33323;52.124;6.018;2023-03-23T10:47:39;14.90;99.90
47600;DHT22;33323;52.124;6.018;2023-03-23T10:50:18;15.50;99.90
47600;DHT22;33323;52.124;6.018;2023-03-23T10:52:50;15.70;99.90
47600;DHT22;33323;52.124;6.018;2023-03-23T10:55:22;15.20;99.90
47600;DHT22;33323;52.124;6.018;2023-03-23T10:58:05;14.80;99.90
47600;DHT22;33323;52.124;6.018;2023-03-23T11:00:43;14.80;99.90
47600;DHT22;33323;52.124;6.018;2023-03-23T11:05:44;15.30;99.90
47600;DHT22;33323;52.124;6.018;2023-03-23T11:08:22;15.40;99.90
47600;DHT22;33323;52.124;6.018;2023-03-23T11:10:53;15.10;99.90
47600;DHT22;33323;52.124;6.018;2023-03-23T11:13:46;15.00;99.90
47600;DHT22;33323;52.124;6.018;2023-03-23T11:16:42;15.10;99.90
47600;DHT22;33323;52.124;6.018;2023-03-23T11:19:22;14.70;99.90
47600;DHT22;33323;52.124;6.018;2023-03-23T11:22:05;14.30;99.90
47600;DHT22;33323;52.124;6.018;2023-03-23T11:24:47;14.50;99.90
47600;DHT22;33323;52.124;6.018;2023-03-23T11:27:19;14.60;99.90
47600;DHT22;33323;52.124;6.018;2023-03-23T11:29:58;14.40;99.90
47600;DHT22;33323;52.124;6.018;2023-03-23T11:32:34;14.50;99.90
47600;DHT22;33323;52.124;6.018;2023-03-23T11:35:11;14.50;99.90
47600;DHT22;33323;52.124;6.018;2023-03-23T11:37:49;14.70;99.90
47600;DHT22;33323;52.124;6.018;2023-03-23T11:40:22;14.90;99.90
47600;DHT22;33323;52.124;6.018;2023-03-23T11:43:06;14.80;99.90
47600;DHT22;33323;52.124;6.018;2023-03-23T11:45:48;14.60;99.90
47600;DHT22;33323;52.124;6.018;2023-03-23T11:48:38;14.40;99.90
47600;DHT22;33323;52.124;6.018;2023-03-23T11:51:16;14.30;99.90
47600;DHT22;33323;52.124;6.018;2023-03-23T11:56:59;14.10;99.90
47600;DHT22;33323;52.124;6.018;2023-03-23T11:59:31;13.70;99.90
47600;DHT22;33323;52.124;6.018;2023-03-23T12:02:32;13.40;99.90
47600;DHT22;33323;52.124;6.018;2023-03-23T12:05:30;13.30;99.90
47600;DHT22;33323;52.124;6.018;2023-03-23T12:08:10;13.40;99.90
47600;DHT22;33323;52.124;6.018;2023-03-23T12:14:33;13.70;99.90
47600;DHT22;33323;52.124;6.018;2023-03-23T12:19:56;14.60;99.90
47600;DHT22;33323;52.124;6.018;2023-03-23T12:31:01;15.00;99.90
47600;DHT22;33323;52.124;6.018;2023-03-23T12:44:47;14.20;99.90
47600;DHT22;33323;52.124;6.018;2023-03-23T12:48:00;14.00;99.90
47600;DHT22;33323;52.124;6.018;2023-03-23T12:50:43;13.70;99.90
47600;DHT22;33323;52.124;6.018;2023-03-23T12:53:27;13.40;99.90
47600;DHT22;33323;52.124;6.018;2023-03-23T12:56:11;13.20;99.90
47600;DHT22;33323;52.124;6.018;2023-03-23T12:58:45;13.10;99.90
47600;DHT22;33323;52.124;6.018;2023-03-23T13:01:22;12.80;99.90
47600;DHT22;33323;52.124;6.018;2023-03-23T13:04:11;12.60;99.90
47600;DHT22;33323;52.124;6.018;2023-03-23T13:06:41;12.30;99.90
47600;DHT22;33323;52.124;6.018;2023-03-23T13:12:10;12.40;99.90
47600;DHT22;33323;52.124;6.018;2023-03-23T13:14:44;12.40;99.90
47600;DHT22;33323;52.124;6.018;2023-03-23T13:26:01;13.00;99.90
47600;DHT22;33323;52.124;6.018;2023-03-23T13:31:38;13.00;99.90
47600;DHT22;33323;52.124;6.018;2023-03-23T13:34:05;13.00;99.90
47600;DHT22;33323;52.124;6.018;2023-03-23T13:36:41;13.00;99.90
47600;DHT22;33323;52.124;6.018;2023-03-23T13:39:27;13.00;99.90
47600;DHT22;33323;52.124;6.018;2023-03-23T13:50:01;14.00;99.90
47600;DHT22;33323;52.124;6.018;2023-03-23T14:10:51;14.00;99.90
47600;DHT22;33323;52.124;6.018;2023-03-23T14:16:24;13.90;99.90
47600;DHT22;33323;52.124;6.018;2023-03-23T14:18:56;13.90;99.90
47600;DHT22;33323;52.124;6.018;2023-03-23T14:21:39;13.90;99.90
47600;DHT22;33323;52.124;6.018;2023-03-23T14:24:24;13.80;99.90
47600;DHT22;33323;52.124;6.018;2023-03-23T14:27:16;13.80;99.90
47600;DHT22;33323;52.124;6.018;2023-03-23T14:29:45;13.70;99.90
47600;DHT22;33323;52.124;6.018;2023-03-23T14:32:17;13.60;99.90
47600;DHT22;33323;52.124;6.018;2023-03-23T14:34:47;13.50;99.90
47600;DHT22;33323;52.124;6.018;2023-03-23T14:37:15;13.50;99.90
47600;DHT22;33323;52.124;6.018;2023-03-23T14:39:49;13.40;99.90
47600;DHT22;33323;52.124;6.018;2023-03-23T14:42:20;13.40;99.90
47600;DHT22;33323;52.124;6.018;2023-03-23T14:44:53;13.40;99.90
47600;DHT22;33323;52.124;6.018;2023-03-23T14:47:25;13.50;99.90
47600;DHT22;33323;52.124;6.018;2023-03-23T14:49:56;13.60;99.90
47600;DHT22;33323;52.124;6.018;2023-03-23T14:52:35;13.70;99.90
47600;DHT22;33323;52.124;6.018;2023-03-23T14:55:18;13.90;99.90
47600;DHT22;33323;52.124;6.018;2023-03-23T14:57:47;13.80;99.90
47600;DHT22;33323;52.124;6.018;2023-03-23T15:00:20;14.10;99.90
47600;DHT22;33323;52.124;6.018;2023-03-23T15:02:54;14.10;99.90
47600;DHT22;33323;52.124;6.018;2023-03-23T15:05:30;14.20;99.90
47600;DHT22;33323;52.124;6.018;2023-03-23T15:08:31;14.40;99.90
47600;DHT22;33323;52.124;6.018;2023-03-23T15:11:07;14.40;99.90
47600;DHT22;33323;52.124;6.018;2023-03-23T15:13:37;14.40;99.90
47600;DHT22;33323;52.124;6.018;2023-03-23T15:16:14;14.50;99.90
47600;DHT22;33323;52.124;6.018;2023-03-23T15:18:53;14.60;99.90
47600;DHT22;33323;52.124;6.018;2023-03-23T15:21:35;14.50;99.90
47600;DHT22;33323;52.124;6.018;2023-03-23T15:24:34;14.50;99.90
47600;DHT22;33323;52.124;6.018;2023-03-23T15:27:17;14.50;99.90
47600;DHT22;33323;52.124;6.018;2023-03-23T15:29:58;14.40;99.90
47600;DHT22;33323;52.124;6.018;2023-03-23T15:32:30;14.40;99.90
47600;DHT22;33323;52.124;6.018;2023-03-23T15:34:58;14.30;99.90
47600;DHT22;33323;52.124;6.018;2023-03-23T15:37:31;14.20;99.90
47600;DHT22;33323;52.124;6.018;2023-03-23T15:39:58;14.30;99.90
47600;DHT22;33323;52.124;6.018;2023-03-23T15:42:31;14.40;99.90
47600;DHT22;33323;52.124;6.018;2023-03-23T15:50:34;14.20;99.90
47600;DHT22;33323;52.124;6.018;2023-03-23T15:53:26;14.30;99.90
47600;DHT22;33323;52.124;6.018;2023-03-23T15:55:53;14.20;99.90
47600;DHT22;33323;52.124;6.018;2023-03-23T15:58:20;14.20;99.90
47600;DHT22;33323;52.124;6.018;2023-03-23T16:00:49;14.30;99.90
47600;DHT22;33323;52.124;6.018;2023-03-23T16:03:40;14.40;99.90
47600;DHT22;33323;52.124;6.018;2023-03-23T16:06:20;14.50;99.90
47600;DHT22;33323;52.124;6.018;2023-03-23T16:08:55;14.50;99.90
47600;DHT22;33323;52.124;6.018;2023-03-23T16:11:25;14.40;99.90
47600;DHT22;33323;52.124;6.018;2023-03-23T16:13:54;14.20;99.90
47600;DHT22;33323;52.124;6.018;2023-03-23T16:16:30;14.20;99.90
47600;DHT22;33323;52.124;6.018;2023-03-23T16:19:00;14.10;99.90
47600;DHT22;33323;52.124;6.018;2023-03-23T16:21:27;14.00;99.90
47600;DHT22;33323;52.124;6.018;2023-03-23T16:23:55;14.00;99.90
47600;DHT22;33323;52.124;6.018;2023-03-23T16:26:22;14.10;99.90
47600;DHT22;33323;52.124;6.018;2023-03-23T16:28:50;14.10;99.90
47600;DHT22;33323;52.124;6.018;2023-03-23T16:31:28;14.10;99.90
47600;DHT22;33323;52.124;6.018;2023-03-23T16:33:55;14.00;99.90
47600;DHT22;33323;52.124;6.018;2023-03-23T16:36:23;14.00;99.90
47600;DHT22;33323;52.124;6.018;2023-03-23T16:38:50;13.90;99.90
47600;DHT22;33323;52.124;6.018;2023-03-23T16:41:20;13.90;99.90
47600;DHT22;33323;52.124;6.018;2023-03-23T16:43:47;13.90;99.90
47600;DHT22;33323;52.124;6.018;2023-03-23T16:46:14;13.90;99.90
47600;DHT22;33323;52.124;6.018;2023-03-23T16:48:41;13.80;99.90
47600;DHT22;33323;52.124;6.018;2023-03-23T16:51:09;13.70;99.90
47600;DHT22;33323;52.124;6.018;2023-03-23T16:53:36;13.60;99.90
47600;DHT22;33323;52.124;6.018;2023-03-23T16:56:03;13.50;99.90
47600;DHT22;33323;52.124;6.018;2023-03-23T16:58:31;13.50;99.90
47600;DHT22;33323;52.124;6.018;2023-03-23T17:01:00;13.50;99.90
47600;DHT22;33323;52.124;6.018;2023-03-23T17:03:28;13.50;99.90
47600;DHT22;33323;52.124;6.018;2023-03-23T17:05:55;13.50;99.90
47600;DHT22;33323;52.124;6.018;2023-03-23T17:08:22;13.50;99.90
47600;DHT22;33323;52.124;6.018;2023-03-23T17:10:49;13.50;99.90
47600;DHT22;33323;52.124;6.018;2023-03-23T17:13:16;13.50;99.90
47600;DHT22;33323;52.124;6.018;2023-03-23T17:15:45;13.50;99.90
47600;DHT22;33323;52.124;6.018;2023-03-23T17:18:13;13.50;99.90
47600;DHT22;33323;52.124;6.018;2023-03-23T17:20:44;13.50;99.90
47600;DHT22;33323;52.124;6.018;2023-03-23T17:23:11;13.50;99.90
47600;DHT22;33323;52.124;6.018;2023-03-23T17:25:39;13.50;99.90
47600;DHT22;33323;52.124;6.018;2023-03-23T17:28:06;13.40;99.90
47600;DHT22;33323;52.124;6.018;2023-03-23T17:30:34;13.40;99.90
47600;DHT22;33323;52.124;6.018;2023-03-23T17:33:01;13.40;99.90
47600;DHT22;33323;52.124;6.018;2023-03-23T17:35:28;13.30;99.90
47600;DHT22;33323;52.124;6.018;2023-03-23T17:37:55;13.30;99.90
47600;DHT22;33323;52.124;6.018;2023-03-23T17:40:23;13.20;99.90
47600;DHT22;33323;52.124;6.018;2023-03-23T17:42:50;13.30;99.90
47600;DHT22;33323;52.124;6.018;2023-03-23T17:45:17;13.20;99.90
47600;DHT22;33323;52.124;6.018;2023-03-23T17:47:44;13.20;99.90
47600;DHT22;33323;52.124;6.018;2023-03-23T17:50:11;13.10;99.90
47600;DHT22;33323;52.124;6.018;2023-03-23T17:52:39;13.10;99.90
47600;DHT22;33323;52.124;6.018;2023-03-23T17:55:07;13.10;99.90
47600;DHT22;33323;52.124;6.018;2023-03-23T17:57:35;13.10;99.90
47600;DHT22;33323;52.124;6.018;2023-03-23T18:00:03;13.00;99.90
47600;DHT22;33323;52.124;6.018;2023-03-23T18:02:36;13.00;99.90
47600;DHT22;33323;52.124;6.018;2023-03-23T18:05:05;13.00;99.90
47600;DHT22;33323;52.124;6.018;2023-03-23T18:07:34;12.90;99.90